Terminal Aerodrome Forecast
Issued by NWS Rapid City, SD

Home | Current Version | Previous Version | Graphics & Text | Print | Product List | Glossary On
Versions: 1 2 3 4 5 6 7 8 9 10 11 12 13 14 15 16 17 18 19 20 21 22 23 24 25 26 27 28 29 30 31
000
FTUS43 KUNR 282000 AAA
TAFRAP
TAF AMD
KRAP 282032Z 2821/2918 35016KT 6SM BR OVC008
     FM290100 36014KT 5SM BR OVC006
     FM290700 05011KT 5SM -SHRA BR OVC006=

USA.gov is the U.S. government's official web portal to all federal, state and local government web resources and services.